createdAt,value
2023-05-02T00:02:06.380Z,63.93
2023-05-02T00:04:38.328Z,63.93
2023-05-02T00:07:11.439Z,63.52
2023-05-02T00:09:43.073Z,63.53
2023-05-02T00:12:14.673Z,63.82
2023-05-02T00:14:46.208Z,65.53
2023-05-02T00:17:21.463Z,64.87
2023-05-02T00:19:55.309Z,65.19
2023-05-02T00:22:26.904Z,63.89
2023-05-02T00:24:59.091Z,63.68
2023-05-02T00:27:34.503Z,63.20
2023-05-02T00:30:07.125Z,65.38
2023-05-02T00:32:41.706Z,64.36
2023-05-02T00:35:13.363Z,63.62
2023-05-02T00:37:44.889Z,66.53
2023-05-02T00:40:16.565Z,63.54
2023-05-02T00:42:48.184Z,62.82
2023-05-02T00:45:19.973Z,61.60
2023-05-02T00:47:55.426Z,61.25
2023-05-02T00:50:28.942Z,61.63
2023-05-02T00:53:01.052Z,61.09
2023-05-02T00:55:34.368Z,62.23
2023-05-02T00:58:11.896Z,61.40
2023-05-02T01:01:17.645Z,61.28
2023-05-02T01:04:20.309Z,61.35
2023-05-02T01:07:54.492Z,61.45
2023-05-02T01:10:49.618Z,64.10
2023-05-02T01:13:26.257Z,61.53
2023-05-02T01:15:59.750Z,61.02
2023-05-02T01:18:37.949Z,61.06
2023-05-02T01:21:11.746Z,60.64
2023-05-02T01:24:19.764Z,60.84
2023-05-02T01:27:11.504Z,61.02
2023-05-02T01:29:44.469Z,61.40
2023-05-02T01:32:17.110Z,61.00
2023-05-02T01:34:51.255Z,61.03
2023-05-02T01:37:23.923Z,61.62
2023-05-02T01:39:57.334Z,61.25
2023-05-02T01:42:30.276Z,61.59
2023-05-02T01:45:04.455Z,61.29
2023-05-02T01:47:37.839Z,61.80
2023-05-02T01:50:13.957Z,62.64
2023-05-02T01:52:49.700Z,62.27
2023-05-02T01:55:22.393Z,62.26
2023-05-02T01:57:56.277Z,61.97
2023-05-02T02:00:29.411Z,61.93
2023-05-02T02:03:03.830Z,61.40
2023-05-02T02:05:37.794Z,61.39
2023-05-02T02:08:09.524Z,61.73
2023-05-02T02:10:45.021Z,63.29
2023-05-02T02:13:39.145Z,63.56
2023-05-02T02:16:23.979Z,64.14
2023-05-02T02:18:57.659Z,63.60
2023-05-02T02:21:32.279Z,64.11
2023-05-02T02:24:06.577Z,63.51
2023-05-02T02:26:41.146Z,62.79
2023-05-02T02:29:12.858Z,62.23
2023-05-02T02:31:47.567Z,62.03
2023-05-02T02:34:20.576Z,62.19
2023-05-02T02:37:12.511Z,62.14
2023-05-02T02:40:33.771Z,62.17
2023-05-02T02:43:14.441Z,62.32
2023-05-02T02:46:24.674Z,62.30
2023-05-02T02:49:28.703Z,62.46
2023-05-02T02:52:29.880Z,61.98
2023-05-02T02:55:24.467Z,62.68
2023-05-02T02:58:04.366Z,62.85
2023-05-02T03:00:39.872Z,63.10
2023-05-02T03:03:16.628Z,64.91
2023-05-02T03:05:49.547Z,64.54
2023-05-02T03:08:21.154Z,65.11
2023-05-02T03:10:52.711Z,63.86
2023-05-02T03:13:24.298Z,62.69
2023-05-02T03:15:57.515Z,62.65
2023-05-02T03:18:29.168Z,62.61
2023-05-02T03:21:01.969Z,63.12
2023-05-02T03:23:33.719Z,62.58
2023-05-02T03:26:06.186Z,61.95
2023-05-02T03:28:37.744Z,63.27
2023-05-02T03:31:11.476Z,63.20
2023-05-02T03:33:43.191Z,62.39
2023-05-02T03:36:15.635Z,62.01
2023-05-02T03:38:47.179Z,61.68
2023-05-02T03:41:20.135Z,61.76
2023-05-02T03:43:51.896Z,61.77
2023-05-02T03:46:23.546Z,62.00
2023-05-02T03:48:55.177Z,61.88
2023-05-02T03:51:26.932Z,62.08
2023-05-02T03:53:58.526Z,62.37
2023-05-02T03:56:32.910Z,61.74
2023-05-02T03:59:04.730Z,61.60
2023-05-02T04:01:36.434Z,61.19
2023-05-02T04:04:08.683Z,62.15
2023-05-02T04:06:40.403Z,61.72
2023-05-02T04:09:12.063Z,61.31
2023-05-02T04:11:43.636Z,60.63
2023-05-02T04:14:15.304Z,61.52
2023-05-02T04:16:51.308Z,61.82
2023-05-02T04:19:22.871Z,61.48
2023-05-02T04:21:54.440Z,61.72
2023-05-02T04:24:26.150Z,61.96
2023-05-02T04:26:57.731Z,61.44
2023-05-02T04:29:29.295Z,61.42
2023-05-02T04:32:00.874Z,61.35
2023-05-02T04:34:32.549Z,61.65
2023-05-02T04:37:04.106Z,61.70
2023-05-02T04:39:35.756Z,61.58
2023-05-02T04:42:10.350Z,61.82
2023-05-02T04:44:41.926Z,61.98
2023-05-02T04:47:13.548Z,61.60
2023-05-02T04:49:45.097Z,63.39
2023-05-02T04:52:16.751Z,64.63
2023-05-02T04:54:48.343Z,64.18
2023-05-02T04:57:21.315Z,63.49
2023-05-02T04:59:54.560Z,63.69
2023-05-02T05:02:26.758Z,63.03
2023-05-02T05:04:58.515Z,62.56
2023-05-02T05:07:30.205Z,62.91
2023-05-02T05:10:02.079Z,62.52
2023-05-02T05:12:33.876Z,62.09
2023-05-02T05:15:06.996Z,61.28
2023-05-02T05:17:39.180Z,61.13
2023-05-02T05:20:11.119Z,60.99
2023-05-02T05:22:43.136Z,60.02
2023-05-02T05:25:15.223Z,60.67
2023-05-02T05:27:46.878Z,59.77
2023-05-02T05:30:18.511Z,59.48
2023-05-02T05:32:50.539Z,60.05
2023-05-02T05:35:22.154Z,59.68
2023-05-02T05:37:53.850Z,59.35
2023-05-02T05:40:25.487Z,59.04
2023-05-02T05:42:57.099Z,60.40
2023-05-02T05:45:28.667Z,59.98
2023-05-02T05:48:00.397Z,59.30
2023-05-02T05:50:31.975Z,59.25
2023-05-02T05:53:03.623Z,58.97
2023-05-02T05:55:37.341Z,59.19
2023-05-02T05:58:12.818Z,58.48
2023-05-02T06:00:47.453Z,59.05
2023-05-02T06:03:19.221Z,58.91
2023-05-02T06:05:50.925Z,59.21
2023-05-02T06:08:22.484Z,58.98
2023-05-02T06:10:54.077Z,59.50
2023-05-02T06:13:26.283Z,59.30
2023-05-02T06:16:02.059Z,59.09
2023-05-02T06:18:33.688Z,58.81
2023-05-02T06:21:06.463Z,58.98
2023-05-02T06:23:38.193Z,58.35
2023-05-02T06:26:10.295Z,57.68
2023-05-02T06:28:42.066Z,57.61
2023-05-02T06:31:13.684Z,58.85
2023-05-02T06:33:45.365Z,58.83
2023-05-02T06:36:16.965Z,57.00
2023-05-02T06:38:48.726Z,57.94
2023-05-02T06:41:20.818Z,56.95
2023-05-02T06:43:52.439Z,56.39
2023-05-02T06:46:24.065Z,60.03
2023-05-02T06:48:55.713Z,59.64
2023-05-02T06:51:27.841Z,58.98
2023-05-02T06:53:59.602Z,59.71
2023-05-02T06:56:31.373Z,57.94
2023-05-02T06:59:02.996Z,57.28
2023-05-02T07:01:34.726Z,61.76
2023-05-02T07:04:06.448Z,65.62
2023-05-02T07:06:41.346Z,65.63
2023-05-02T07:09:12.969Z,62.82
2023-05-02T07:11:44.535Z,60.87
2023-05-02T07:14:16.220Z,59.95
2023-05-02T07:16:50.772Z,58.77
2023-05-02T07:19:22.379Z,59.18
2023-05-02T07:21:54.075Z,61.05
2023-05-02T07:24:28.682Z,56.90
2023-05-02T07:27:00.809Z,57.93
2023-05-02T07:29:32.515Z,62.46
2023-05-02T07:32:04.216Z,59.02
2023-05-02T07:34:35.842Z,59.06
2023-05-02T07:37:07.418Z,57.13
2023-05-02T07:39:41.822Z,55.49
2023-05-02T07:42:13.425Z,56.20
2023-05-02T07:44:45.025Z,56.63
2023-05-02T07:47:16.572Z,57.13
2023-05-02T07:49:52.533Z,55.96
2023-05-02T07:52:24.137Z,54.52
2023-05-02T07:54:56.375Z,55.54
2023-05-02T07:57:27.952Z,56.54
2023-05-02T08:00:00.087Z,57.79
2023-05-02T08:02:32.063Z,57.68
2023-05-02T08:05:04.619Z,55.73
2023-05-02T08:07:37.269Z,54.25
2023-05-02T08:10:10.231Z,53.23
2023-05-02T08:12:42.562Z,50.77
2023-05-02T08:15:14.421Z,52.43
2023-05-02T08:17:46.018Z,52.10
2023-05-02T08:20:17.862Z,53.03
2023-05-02T08:22:50.438Z,52.69
2023-05-02T08:25:22.159Z,53.48
2023-05-02T08:27:53.712Z,51.77
2023-05-02T08:30:25.542Z,50.73
2023-05-02T08:32:57.134Z,50.53
2023-05-02T08:35:31.871Z,50.20
2023-05-02T08:38:03.485Z,49.93
2023-05-02T08:40:41.463Z,52.17
2023-05-02T08:43:16.382Z,51.50
2023-05-02T08:45:53.847Z,49.66
2023-05-02T08:48:26.836Z,48.69
2023-05-02T08:50:59.551Z,49.67
2023-05-02T08:53:34.744Z,50.60
2023-05-02T08:56:08.100Z,49.43
2023-05-02T08:58:41.284Z,52.08
2023-05-02T09:01:19.344Z,50.13
2023-05-02T09:03:52.302Z,49.23
2023-05-02T09:06:24.082Z,47.57
2023-05-02T09:08:59.646Z,45.79
2023-05-02T09:11:31.462Z,44.77
2023-05-02T09:14:16.178Z,45.35
2023-05-02T09:16:47.956Z,44.83
2023-05-02T09:19:26.826Z,47.24
2023-05-02T09:22:01.950Z,47.94
2023-05-02T09:24:33.957Z,46.49
2023-05-02T09:27:06.023Z,45.02
2023-05-02T09:29:39.090Z,50.77
2023-05-02T09:32:20.591Z,51.83
2023-05-02T09:35:06.861Z,47.93
2023-05-02T09:37:38.669Z,51.91
2023-05-02T09:40:11.430Z,46.70
2023-05-02T09:42:43.100Z,47.29
2023-05-02T09:45:32.907Z,48.69
2023-05-02T09:48:04.952Z,50.69
2023-05-02T09:50:38.481Z,45.72
2023-05-02T09:53:11.321Z,44.89
2023-05-02T09:55:42.895Z,43.14
2023-05-02T09:58:32.796Z,45.26
2023-05-02T10:01:08.028Z,45.75
2023-05-02T10:03:42.143Z,48.94
2023-05-02T10:06:15.911Z,48.00
2023-05-02T10:13:22.673Z,42.58
2023-05-02T10:16:03.051Z,42.08
2023-05-02T10:19:10.667Z,43.73
2023-05-02T10:21:43.568Z,42.81
2023-05-02T10:24:16.640Z,42.61
2023-05-02T10:26:48.512Z,43.62
2023-05-02T10:29:21.041Z,39.83
2023-05-02T10:31:53.528Z,37.91
2023-05-02T10:34:26.055Z,39.37
2023-05-02T10:37:01.574Z,40.72
2023-05-02T10:39:33.448Z,43.33
2023-05-02T10:42:09.064Z,43.74
2023-05-02T10:44:41.691Z,49.22
2023-05-02T10:47:21.927Z,53.46
2023-05-02T10:50:01.999Z,49.35
2023-05-02T10:52:38.277Z,43.47
2023-05-02T10:55:25.333Z,40.30
2023-05-02T10:58:08.818Z,42.22
2023-05-02T11:00:40.455Z,40.27
2023-05-02T11:03:12.167Z,46.86
2023-05-02T11:06:07.876Z,39.76
2023-05-02T11:08:41.754Z,49.52
2023-05-02T11:11:42.646Z,37.20
2023-05-02T11:14:34.315Z,39.56
2023-05-02T11:17:08.566Z,35.89
2023-05-02T11:19:46.334Z,35.79
2023-05-02T11:22:18.057Z,32.41
2023-05-02T11:24:51.213Z,34.12
2023-05-02T11:27:38.218Z,33.96
2023-05-02T11:30:10.994Z,36.07
2023-05-02T11:32:45.989Z,38.78
2023-05-02T11:35:23.541Z,40.91
2023-05-02T11:38:00.966Z,38.74
2023-05-02T11:40:32.965Z,43.24
2023-05-02T11:43:16.730Z,46.17
2023-05-02T11:45:48.797Z,51.11
2023-05-02T11:48:23.330Z,51.30
2023-05-02T11:51:05.319Z,53.30
2023-05-02T11:53:41.646Z,57.39
2023-05-02T11:56:13.322Z,56.85
2023-05-02T11:58:46.964Z,57.43
2023-05-02T12:01:18.728Z,60.55
2023-05-02T12:03:52.592Z,53.64
2023-05-02T12:06:24.344Z,54.25
2023-05-02T12:09:11.184Z,54.68
2023-05-02T12:11:43.661Z,54.99
2023-05-02T12:14:15.994Z,50.25
2023-05-02T12:16:47.825Z,49.47
2023-05-02T12:19:19.628Z,49.49
2023-05-02T12:21:51.746Z,45.19
2023-05-02T12:24:25.446Z,45.65
2023-05-02T12:27:17.084Z,44.44
2023-05-02T12:29:49.549Z,48.30
2023-05-02T12:32:30.643Z,47.71
2023-05-02T12:35:03.951Z,54.00
2023-05-02T12:37:35.824Z,56.60
2023-05-02T12:40:17.082Z,51.93
2023-05-02T12:43:04.352Z,52.23
2023-05-02T12:45:36.719Z,48.41
2023-05-02T12:48:26.463Z,46.60
2023-05-02T12:51:00.419Z,46.25
2023-05-02T12:53:43.307Z,47.32
2023-05-02T12:56:15.188Z,48.16
2023-05-02T12:58:48.137Z,49.60
2023-05-02T13:01:19.760Z,46.10
2023-05-02T13:03:51.597Z,42.43
2023-05-02T13:06:23.435Z,39.06
2023-05-02T13:08:55.082Z,41.54
2023-05-02T13:11:26.914Z,38.61
2023-05-02T13:14:00.334Z,39.59
2023-05-02T13:16:33.744Z,37.56
2023-05-02T13:19:05.765Z,38.41
2023-05-02T13:21:37.400Z,38.09
2023-05-02T13:24:08.958Z,36.51
2023-05-02T13:26:44.248Z,32.98
2023-05-02T13:29:18.968Z,33.97
2023-05-02T13:31:50.575Z,36.07
2023-05-02T13:34:22.161Z,40.37
2023-05-02T13:36:53.736Z,41.23
2023-05-02T13:39:25.327Z,36.37
2023-05-02T13:41:56.909Z,33.86
2023-05-02T13:44:28.567Z,32.53
2023-05-02T13:47:00.201Z,30.94
2023-05-02T13:49:31.795Z,35.62
2023-05-02T13:52:04.341Z,35.44
2023-05-02T13:54:36.052Z,34.14
2023-05-02T13:57:07.906Z,40.56
2023-05-02T13:59:39.505Z,33.21
2023-05-02T14:02:11.312Z,33.11
2023-05-02T14:04:43.107Z,32.54
2023-05-02T14:07:15.013Z,33.22
2023-05-02T14:09:48.763Z,34.48
2023-05-02T14:12:20.486Z,33.81
2023-05-02T14:14:52.317Z,31.52
2023-05-02T14:19:58.921Z,35.24
2023-05-02T14:22:31.039Z,36.05
2023-05-02T14:25:02.665Z,35.92
2023-05-02T14:27:34.228Z,34.06
2023-05-02T14:30:07.839Z,35.81
2023-05-02T14:32:39.538Z,34.90
2023-05-02T14:35:11.304Z,37.36
2023-05-02T14:37:45.050Z,35.42
2023-05-02T14:40:17.104Z,37.83
2023-05-02T14:42:48.668Z,36.67
2023-05-02T14:45:20.281Z,36.18
2023-05-02T14:47:52.385Z,38.04
2023-05-02T14:50:24.315Z,42.54
2023-05-02T14:52:56.065Z,43.64
2023-05-02T14:55:27.702Z,45.54
2023-05-02T14:57:59.368Z,49.38
2023-05-02T15:00:30.996Z,52.83
2023-05-02T15:03:04.447Z,55.42
2023-05-02T15:05:37.643Z,56.87
2023-05-02T15:08:09.236Z,58.58
2023-05-02T15:10:40.869Z,58.10
2023-05-02T15:13:12.466Z,60.49
2023-05-02T15:15:47.585Z,62.23
2023-05-02T15:18:19.102Z,59.64
2023-05-02T15:20:50.714Z,61.89
2023-05-02T15:23:22.910Z,61.87
2023-05-02T15:25:54.590Z,65.78
2023-05-02T15:28:26.278Z,64.31
2023-05-02T15:30:57.895Z,61.28
2023-05-02T15:33:29.435Z,61.81
2023-05-02T15:36:04.905Z,61.61
2023-05-02T15:38:39.466Z,60.35
2023-05-02T15:41:11.603Z,63.26
2023-05-02T15:43:43.277Z,62.31
2023-05-02T15:46:14.937Z,62.06
2023-05-02T15:48:46.672Z,61.49
2023-05-02T15:51:21.389Z,62.67
2023-05-02T15:53:53.281Z,60.72
2023-05-02T15:56:24.970Z,60.69
2023-05-02T15:58:56.571Z,61.39
2023-05-02T16:01:28.217Z,60.73
2023-05-02T16:04:03.098Z,58.44
2023-05-02T16:06:34.739Z,54.09
2023-05-02T16:09:10.217Z,52.63
2023-05-02T16:11:42.002Z,50.46
2023-05-02T16:14:13.599Z,52.03
2023-05-02T16:16:45.366Z,51.38
2023-05-02T16:19:19.625Z,52.70
2023-05-02T16:21:52.515Z,55.46
2023-05-02T16:24:27.224Z,49.84
2023-05-02T16:26:58.856Z,48.62
2023-05-02T16:29:30.624Z,48.42
2023-05-02T16:32:02.227Z,49.01
2023-05-02T16:34:33.949Z,49.11
2023-05-02T16:37:08.172Z,51.61
2023-05-02T16:39:40.018Z,53.62
2023-05-02T16:42:12.098Z,52.35
2023-05-02T16:44:43.646Z,51.05
2023-05-02T16:47:15.883Z,52.55
2023-05-02T16:49:52.162Z,46.66
2023-05-02T16:52:25.287Z,46.53
2023-05-02T16:54:56.998Z,46.12
2023-05-02T16:57:29.213Z,43.88
2023-05-02T17:00:01.759Z,44.54
2023-05-02T17:02:33.645Z,45.49
2023-05-02T17:05:06.355Z,46.81
2023-05-02T17:07:37.950Z,47.46
2023-05-02T17:10:10.440Z,49.10
2023-05-02T17:12:42.040Z,48.79
2023-05-02T17:15:16.555Z,49.11
2023-05-02T17:17:48.162Z,49.27
2023-05-02T17:20:20.470Z,49.68
2023-05-02T17:22:52.637Z,50.72
2023-05-02T17:25:24.224Z,50.36
2023-05-02T17:27:55.845Z,49.83
2023-05-02T17:30:27.525Z,49.82
2023-05-02T17:32:59.357Z,49.95
2023-05-02T17:35:31.769Z,50.15
2023-05-02T17:38:03.403Z,50.93
2023-05-02T17:40:36.107Z,51.34
2023-05-02T17:43:09.758Z,52.26
2023-05-02T17:45:41.630Z,52.14
2023-05-02T17:48:13.418Z,52.41
2023-05-02T17:50:45.332Z,53.33
2023-05-02T17:53:17.043Z,53.76
2023-05-02T17:55:48.583Z,52.50
2023-05-02T17:58:20.505Z,53.13
2023-05-02T18:00:52.053Z,54.55
2023-05-02T18:03:29.406Z,54.10
2023-05-02T18:06:01.313Z,50.37
2023-05-02T18:08:36.147Z,50.03
2023-05-02T18:11:16.278Z,53.85
2023-05-02T18:13:49.678Z,57.30
2023-05-02T18:16:21.314Z,62.24
2023-05-02T18:18:53.606Z,64.47
2023-05-02T18:21:28.306Z,64.45
2023-05-02T18:23:59.909Z,68.45
2023-05-02T18:26:31.550Z,67.60
2023-05-02T18:29:03.190Z,68.15
2023-05-02T18:31:36.126Z,65.92
2023-05-02T18:34:09.195Z,65.43
2023-05-02T18:36:45.110Z,65.69
2023-05-02T18:39:16.786Z,64.99
2023-05-02T18:41:48.404Z,65.56
2023-05-02T18:44:19.973Z,63.95
2023-05-02T18:46:51.894Z,64.28
2023-05-02T18:49:29.308Z,65.55
2023-05-02T18:52:00.910Z,64.06
2023-05-02T18:54:33.570Z,64.26
2023-05-02T18:57:05.276Z,63.18
2023-05-02T18:59:36.877Z,62.95
2023-05-02T19:02:08.446Z,61.49
2023-05-02T19:04:39.999Z,63.11
2023-05-02T19:07:11.808Z,64.11
2023-05-02T19:09:43.530Z,64.50
2023-05-02T19:12:15.253Z,64.48
2023-05-02T19:14:47.986Z,64.75
2023-05-02T19:17:19.683Z,63.29
2023-05-02T19:19:51.991Z,62.13
2023-05-02T19:22:23.642Z,61.91
2023-05-02T19:24:55.310Z,62.13
2023-05-02T19:27:27.254Z,61.82
2023-05-02T19:29:58.779Z,61.66
2023-05-02T19:32:30.600Z,62.42
2023-05-02T19:35:04.346Z,62.00
2023-05-02T19:37:36.661Z,61.61
2023-05-02T19:40:09.761Z,62.04
2023-05-02T19:42:43.667Z,62.06
2023-05-02T19:45:17.930Z,63.50
2023-05-02T19:47:49.603Z,62.87
2023-05-02T19:50:21.182Z,62.64
2023-05-02T19:52:52.801Z,62.70
2023-05-02T19:55:24.693Z,62.13
2023-05-02T19:57:56.345Z,62.14
2023-05-02T20:00:27.975Z,61.96
2023-05-02T20:02:59.872Z,61.74
2023-05-02T20:05:31.511Z,61.91
2023-05-02T20:08:03.175Z,61.89
2023-05-02T20:10:36.783Z,62.33
2023-05-02T20:13:08.347Z,62.53
2023-05-02T20:15:40.111Z,62.84
2023-05-02T20:18:11.792Z,62.86
2023-05-02T20:20:43.424Z,62.21
2023-05-02T20:23:15.076Z,62.54
2023-05-02T20:25:46.661Z,62.12
2023-05-02T20:28:18.274Z,62.90
2023-05-02T20:30:50.683Z,62.97
2023-05-02T20:33:27.488Z,63.59
2023-05-02T20:36:05.739Z,63.96
2023-05-02T20:39:45.679Z,63.38
2023-05-02T20:42:23.350Z,63.86
2023-05-02T20:44:58.458Z,63.99
2023-05-02T20:47:30.551Z,63.54
2023-05-02T20:50:02.653Z,65.12
2023-05-02T20:52:35.681Z,63.54
2023-05-02T20:55:08.091Z,63.23
2023-05-02T20:57:40.009Z,62.88
2023-05-02T21:00:13.728Z,63.43
2023-05-02T21:02:45.482Z,63.21
2023-05-02T21:05:17.086Z,64.30
2023-05-02T21:07:48.671Z,64.77
2023-05-02T21:10:20.254Z,64.78
2023-05-02T21:12:51.930Z,65.46
2023-05-02T21:15:23.498Z,64.90
2023-05-02T21:18:02.536Z,62.87
2023-05-02T21:20:34.687Z,62.80
2023-05-02T21:23:06.464Z,62.52
2023-05-02T21:25:40.947Z,62.77
2023-05-02T21:28:12.704Z,63.33
2023-05-02T21:30:44.334Z,63.91
2023-05-02T21:33:17.678Z,63.17
2023-05-02T21:35:57.634Z,63.16
2023-05-02T21:38:29.266Z,62.67
2023-05-02T21:41:05.280Z,62.94
2023-05-02T21:43:40.536Z,62.37
2023-05-02T21:46:14.936Z,63.90
2023-05-02T21:48:46.562Z,64.73
2023-05-02T21:51:18.154Z,63.01
2023-05-02T21:53:49.897Z,62.64
2023-05-02T21:56:21.495Z,62.96
2023-05-02T21:58:53.157Z,62.87
2023-05-02T22:01:24.922Z,63.44
2023-05-02T22:03:58.081Z,63.80
2023-05-02T22:06:29.780Z,62.90
2023-05-02T22:09:01.534Z,62.55
2023-05-02T22:11:35.823Z,62.19
2023-05-02T22:14:07.589Z,62.44
2023-05-02T22:16:40.163Z,61.64
2023-05-02T22:19:11.993Z,61.44
2023-05-02T22:21:43.960Z,62.11
2023-05-02T22:24:16.678Z,62.41
2023-05-02T22:26:50.558Z,62.56
2023-05-02T22:29:22.775Z,62.69
2023-05-02T22:31:54.448Z,63.17
2023-05-02T22:34:26.116Z,64.35
2023-05-02T22:36:57.665Z,63.64
2023-05-02T22:39:29.261Z,65.26
2023-05-02T22:42:01.647Z,65.46
2023-05-02T22:44:37.950Z,65.26
2023-05-02T22:47:15.490Z,64.36
2023-05-02T22:49:47.413Z,64.21
2023-05-02T22:52:22.524Z,64.42
2023-05-02T22:54:54.313Z,64.36
2023-05-02T22:57:25.847Z,64.17
2023-05-02T22:59:57.424Z,65.11
2023-05-02T23:02:29.168Z,65.40
2023-05-02T23:05:01.633Z,65.22
2023-05-02T23:07:33.395Z,66.68
2023-05-02T23:10:06.395Z,64.65
2023-05-02T23:12:38.469Z,63.42
2023-05-02T23:15:10.695Z,63.95
2023-05-02T23:17:42.370Z,63.82
2023-05-02T23:20:14.066Z,63.47
2023-05-02T23:22:46.357Z,63.75
2023-05-02T23:25:19.109Z,63.71
2023-05-02T23:27:50.856Z,63.49
2023-05-02T23:30:22.737Z,63.67
2023-05-02T23:32:54.466Z,62.69
2023-05-02T23:35:26.302Z,61.89
2023-05-02T23:38:00.796Z,63.40
2023-05-02T23:40:32.818Z,62.48
2023-05-02T23:43:07.518Z,62.11
2023-05-02T23:45:39.374Z,62.33
2023-05-02T23:48:10.956Z,63.17
2023-05-02T23:50:42.813Z,63.13
2023-05-02T23:53:14.382Z,63.14
2023-05-02T23:55:46.131Z,63.14
2023-05-02T23:58:17.681Z,61.91
